Weller, Iowa
Current Conditions -  °F | °C
As of 6:15 AM on Saturday 20 Dec 2014 (Local Time) from KOXV Reporting Station
Haze Haze  
Wind Chill: 27°   Ceiling: 300
Heat Index: 32°   Visibility: 2mi
Dew Point: 30°   Wind: 5mph
Humidity: 93%   Direction: 170°S
Pressure: 30.16"   Gusts: NA
Location:  41.1173°N, 92.9847°W
Report Text: KOXV 201215Z AUTO 17004KT 2SM BR OVC003 M00/M01 A3016 RMK AO2
Loading
Personal Weather Stations






























Interactive Weather Map New forecast layout! Learn more

10-Day Weather Forecast

Advertisements
Track Severe Weather on mobile